createdAt,value
2023-04-04T00:00:09.460Z,980.47
2023-04-04T00:01:09.412Z,980.52
2023-04-04T00:02:09.383Z,980.50
2023-04-04T00:03:09.411Z,980.47
2023-04-04T00:04:09.430Z,980.51
2023-04-04T00:05:09.376Z,980.45
2023-04-04T00:06:09.309Z,980.49
2023-04-04T00:07:09.301Z,980.51
2023-04-04T00:08:09.325Z,980.50
2023-04-04T00:09:09.281Z,980.44
2023-04-04T00:10:09.306Z,980.51
2023-04-04T00:11:09.236Z,980.51
2023-04-04T00:12:09.216Z,980.50
2023-04-04T00:13:09.200Z,980.51
2023-04-04T00:14:09.191Z,980.52
2023-04-04T00:15:09.195Z,980.46
2023-04-04T00:16:09.216Z,980.50
2023-04-04T00:17:09.135Z,980.52
2023-04-04T00:18:09.147Z,980.48
2023-04-04T00:19:09.078Z,980.53
2023-04-04T00:20:09.144Z,980.52
2023-04-04T00:21:09.141Z,980.55
2023-04-04T00:22:09.036Z,980.47
2023-04-04T00:23:09.016Z,980.55
2023-04-04T00:24:09.000Z,980.48
2023-04-04T00:25:09.018Z,980.51
2023-04-04T00:26:08.960Z,980.50
2023-04-04T00:27:08.936Z,980.53
2023-04-04T00:28:08.930Z,980.49
2023-04-04T00:29:08.909Z,980.51
2023-04-04T00:30:08.942Z,980.57
2023-04-04T00:31:08.889Z,980.52
2023-04-04T00:32:08.913Z,980.53
2023-04-04T00:33:08.973Z,980.54
2023-04-04T00:34:08.822Z,980.56
2023-04-04T00:35:08.830Z,980.52
2023-04-04T00:36:08.805Z,980.51
2023-04-04T00:37:08.792Z,980.53
2023-04-04T00:38:08.763Z,980.51
2023-04-04T00:39:08.762Z,980.52
2023-04-04T00:40:08.727Z,980.52
2023-04-04T00:41:08.734Z,980.47
2023-04-04T00:42:08.673Z,980.44
2023-04-04T00:43:08.672Z,980.44
2023-04-04T00:44:08.641Z,980.46
2023-04-04T00:45:08.649Z,980.40
2023-04-04T00:46:08.679Z,980.42
2023-04-04T00:47:08.598Z,980.42
2023-04-04T00:48:08.708Z,980.38
2023-04-04T00:49:08.560Z,980.44
2023-04-04T00:50:08.556Z,980.42
2023-04-04T00:51:08.554Z,980.37
2023-04-04T00:52:08.502Z,980.44
2023-04-04T00:53:08.542Z,980.41
2023-04-04T00:54:08.474Z,980.39
2023-04-04T00:55:08.471Z,980.43
2023-04-04T00:56:08.458Z,980.44
2023-04-04T00:57:08.439Z,980.41
2023-04-04T00:58:08.417Z,980.40
2023-04-04T00:59:08.426Z,980.44
2023-04-04T01:00:08.390Z,980.47
2023-04-04T01:01:08.421Z,980.41
2023-04-04T01:02:08.348Z,980.43
2023-04-04T01:03:08.320Z,980.40
2023-04-04T01:04:08.356Z,980.38
2023-04-04T01:05:08.269Z,980.40
2023-04-04T01:06:08.302Z,980.39
2023-04-04T01:07:08.246Z,980.39
2023-04-04T01:08:08.228Z,980.42
2023-04-04T01:09:08.210Z,980.44
2023-04-04T01:10:08.192Z,980.39
2023-04-04T01:11:08.193Z,980.38
2023-04-04T01:12:08.171Z,980.49
2023-04-04T01:13:08.136Z,980.40
2023-04-04T01:14:08.115Z,980.42
2023-04-04T01:15:08.105Z,980.40
2023-04-04T01:16:08.274Z,980.42
2023-04-04T01:17:08.095Z,980.39
2023-04-04T01:18:08.087Z,980.44
2023-04-04T01:19:08.026Z,980.41
2023-04-04T01:20:08.026Z,980.44
2023-04-04T01:21:08.018Z,980.45
2023-04-04T01:22:07.988Z,980.39
2023-04-04T01:23:07.978Z,980.44
2023-04-04T01:24:07.955Z,980.46
2023-04-04T01:25:07.928Z,980.42
2023-04-04T01:26:07.946Z,980.43
2023-04-04T01:27:07.901Z,980.40
2023-04-04T01:28:07.882Z,980.43
2023-04-04T01:29:07.885Z,980.42
2023-04-04T01:30:07.831Z,980.40
2023-04-04T01:31:07.948Z,980.40
2023-04-04T01:32:07.895Z,980.38
2023-04-04T01:33:07.811Z,980.36
2023-04-04T01:34:07.775Z,980.35
2023-04-04T01:35:07.749Z,980.37
2023-04-04T01:36:07.789Z,980.37
2023-04-04T01:37:07.739Z,980.37
2023-04-04T01:38:07.719Z,980.37
2023-04-04T01:39:07.681Z,980.33
2023-04-04T01:40:07.680Z,980.40
2023-04-04T01:41:07.713Z,980.32
2023-04-04T01:42:07.651Z,980.35
2023-04-04T01:43:07.615Z,980.36
2023-04-04T01:44:07.607Z,980.39
2023-04-04T01:45:07.578Z,980.30
2023-04-04T01:46:07.613Z,980.39
2023-04-04T01:47:07.584Z,980.37
2023-04-04T01:48:07.533Z,980.28
2023-04-04T01:49:08.945Z,980.30
2023-04-04T01:50:07.496Z,980.36
2023-04-04T01:51:07.508Z,980.29
2023-04-04T01:52:07.478Z,980.22
2023-04-04T01:53:07.451Z,980.25
2023-04-04T01:54:07.420Z,980.30
2023-04-04T01:55:07.406Z,980.25
2023-04-04T01:56:07.419Z,980.22
2023-04-04T01:57:07.365Z,980.10
2023-04-04T01:58:07.367Z,980.20
2023-04-04T01:59:07.424Z,980.19
2023-04-04T02:00:07.338Z,980.19
2023-04-04T02:01:07.339Z,980.15
2023-04-04T02:02:07.276Z,980.15
2023-04-04T02:03:07.344Z,980.11
2023-04-04T02:04:07.366Z,980.17
2023-04-04T02:05:07.242Z,980.17
2023-04-04T02:06:07.245Z,980.13
2023-04-04T02:07:07.197Z,980.14
2023-04-04T02:08:07.183Z,980.06
2023-04-04T02:09:07.171Z,980.05
2023-04-04T02:10:07.151Z,980.03
2023-04-04T02:11:07.209Z,980.03
2023-04-04T02:12:07.116Z,980.03
2023-04-04T02:13:07.088Z,980.07
2023-04-04T02:14:07.070Z,979.93
2023-04-04T02:15:07.077Z,979.98
2023-04-04T02:16:07.120Z,980.03
2023-04-04T02:17:07.018Z,979.97
2023-04-04T02:18:07.073Z,980.09
2023-04-04T02:19:06.982Z,980.07
2023-04-04T02:20:06.960Z,980.07
2023-04-04T02:21:06.976Z,980.11
2023-04-04T02:22:06.996Z,980.08
2023-04-04T02:23:06.907Z,980.07
2023-04-04T02:24:06.914Z,980.09
2023-04-04T02:25:06.880Z,980.08
2023-04-04T02:26:06.898Z,980.01
2023-04-04T02:27:06.876Z,980.00
2023-04-04T02:28:06.828Z,980.05
2023-04-04T02:29:06.794Z,980.08
2023-04-04T02:30:06.796Z,979.98
2023-04-04T02:31:06.826Z,980.00
2023-04-04T02:32:06.761Z,979.99
2023-04-04T02:33:06.753Z,980.02
2023-04-04T02:34:06.722Z,979.97
2023-04-04T02:35:06.702Z,979.96
2023-04-04T02:36:06.733Z,980.00
2023-04-04T02:37:06.693Z,980.02
2023-04-04T02:38:06.653Z,980.01
2023-04-04T02:39:06.625Z,980.00
2023-04-04T02:40:06.619Z,979.97
2023-04-04T02:41:06.625Z,979.97
2023-04-04T02:42:06.578Z,979.97
2023-04-04T02:43:06.564Z,979.89
2023-04-04T02:44:06.557Z,979.95
2023-04-04T02:45:06.536Z,979.92
2023-04-04T02:46:20.618Z,979.92
2023-04-04T02:47:08.604Z,979.92
2023-04-04T02:48:06.510Z,979.92
2023-04-04T02:49:06.474Z,979.96
2023-04-04T02:50:06.446Z,979.90
2023-04-04T02:51:06.461Z,979.87
2023-04-04T02:52:06.413Z,979.87
2023-04-04T02:53:06.389Z,979.90
2023-04-04T02:54:06.408Z,979.91
2023-04-04T02:55:06.356Z,979.85
2023-04-04T02:56:06.380Z,979.84
2023-04-04T02:57:06.318Z,979.85
2023-04-04T02:58:06.304Z,979.79
2023-04-04T02:59:06.311Z,979.81
2023-04-04T03:00:06.274Z,979.76
2023-04-04T03:01:06.324Z,979.71
2023-04-04T03:02:06.292Z,979.74
2023-04-04T03:03:06.373Z,979.80
2023-04-04T03:04:06.294Z,979.72
2023-04-04T03:05:06.209Z,979.76
2023-04-04T03:06:06.214Z,979.69
2023-04-04T03:07:06.144Z,979.69
2023-04-04T03:08:06.152Z,979.66
2023-04-04T03:09:06.144Z,979.72
2023-04-04T03:10:06.106Z,979.70
2023-04-04T03:11:06.109Z,979.72
2023-04-04T03:12:06.123Z,979.74
2023-04-04T03:13:06.069Z,979.74
2023-04-04T03:14:06.030Z,979.78
2023-04-04T03:15:06.006Z,979.75
2023-04-04T03:16:06.053Z,979.78
2023-04-04T03:17:05.967Z,979.73
2023-04-04T03:18:05.976Z,979.75
2023-04-04T03:19:05.941Z,979.77
2023-04-04T03:20:05.924Z,979.75
2023-04-04T03:21:05.936Z,979.76
2023-04-04T03:22:05.894Z,979.77
2023-04-04T03:23:05.912Z,979.73
2023-04-04T03:24:05.873Z,979.67
2023-04-04T03:25:05.844Z,979.66
2023-04-04T03:26:05.854Z,979.71
2023-04-04T03:27:05.804Z,979.69
2023-04-04T03:28:05.786Z,979.68
2023-04-04T03:29:05.766Z,979.71
2023-04-04T03:30:05.754Z,979.69
2023-04-04T03:31:05.793Z,979.71
2023-04-04T03:32:05.768Z,979.74
2023-04-04T03:33:05.702Z,979.74
2023-04-04T03:34:05.685Z,979.67
2023-04-04T03:35:05.663Z,979.70
2023-04-04T03:36:39.328Z,979.67
2023-04-04T03:37:05.650Z,979.58
2023-04-04T03:38:05.609Z,979.57
2023-04-04T03:39:05.610Z,979.62
2023-04-04T03:40:05.602Z,979.58
2023-04-04T03:41:05.562Z,979.62
2023-04-04T03:42:05.574Z,979.60
2023-04-04T03:43:05.541Z,979.57
2023-04-04T03:44:05.523Z,979.53
2023-04-04T03:45:05.491Z,979.50
2023-04-04T03:46:05.538Z,979.50
2023-04-04T03:47:05.513Z,979.48
2023-04-04T03:48:05.439Z,979.50
2023-04-04T03:49:05.438Z,979.52
2023-04-04T03:50:05.456Z,979.46
2023-04-04T03:51:05.406Z,979.41
2023-04-04T03:52:05.420Z,979.46
2023-04-04T03:53:05.375Z,979.38
2023-04-04T03:54:05.358Z,979.42
2023-04-04T03:55:05.359Z,979.37
2023-04-04T03:56:05.320Z,979.38
2023-04-04T03:57:05.320Z,979.41
2023-04-04T03:58:05.270Z,979.44
2023-04-04T03:59:05.318Z,979.45
2023-04-04T04:00:05.232Z,979.44
2023-04-04T04:01:05.290Z,979.43
2023-04-04T04:02:05.230Z,979.42
2023-04-04T04:03:05.249Z,979.46
2023-04-04T04:04:05.187Z,979.39
2023-04-04T04:05:05.157Z,979.43
2023-04-04T04:06:05.146Z,979.45
2023-04-04T04:07:05.138Z,979.45
2023-04-04T04:08:05.093Z,979.41
2023-04-04T04:09:05.078Z,979.40
2023-04-04T04:10:05.177Z,979.42
2023-04-04T04:11:05.040Z,979.35
2023-04-04T04:12:05.051Z,979.42
2023-04-04T04:13:05.027Z,979.39
2023-04-04T04:14:05.014Z,979.34
2023-04-04T04:15:04.987Z,979.40
2023-04-04T04:16:05.076Z,979.36
2023-04-04T04:17:04.972Z,979.36
2023-04-04T04:18:04.941Z,979.35
2023-04-04T04:19:04.916Z,979.37
2023-04-04T04:20:04.895Z,979.30
2023-04-04T04:21:04.885Z,979.28
2023-04-04T04:22:04.882Z,979.29
2023-04-04T04:23:04.843Z,979.34
2023-04-04T04:24:04.828Z,979.35
2023-04-04T04:25:04.798Z,979.32
2023-04-04T04:26:04.793Z,979.28
2023-04-04T04:27:04.785Z,979.35
2023-04-04T04:28:04.753Z,979.33
2023-04-04T04:29:04.726Z,979.39
2023-04-04T04:30:04.719Z,979.34
2023-04-04T04:31:04.766Z,979.32
2023-04-04T04:32:04.698Z,979.33
2023-04-04T04:33:04.662Z,979.28
2023-04-04T04:34:04.645Z,979.34
2023-04-04T04:35:04.645Z,979.33
2023-04-04T04:36:04.730Z,979.28
2023-04-04T04:37:04.623Z,979.31
2023-04-04T04:38:04.577Z,979.30
2023-04-04T04:39:04.564Z,979.29
2023-04-04T04:40:04.540Z,979.23
2023-04-04T04:41:04.547Z,979.26
2023-04-04T04:42:04.545Z,979.27
2023-04-04T04:43:04.498Z,979.29
2023-04-04T04:44:04.472Z,979.29
2023-04-04T04:45:04.464Z,979.27
2023-04-04T04:46:04.629Z,979.27
2023-04-04T04:47:04.560Z,979.25
2023-04-04T04:48:04.469Z,979.29
2023-04-04T04:49:04.400Z,979.23
2023-04-04T04:50:04.388Z,979.32
2023-04-04T04:51:04.451Z,979.30
2023-04-04T04:52:04.375Z,979.25
2023-04-04T04:53:04.314Z,979.29
2023-04-04T04:54:05.295Z,979.30
2023-04-04T04:55:04.284Z,979.25
2023-04-04T04:56:04.251Z,979.26
2023-04-04T04:57:04.283Z,979.24
2023-04-04T04:58:04.214Z,979.27
2023-04-04T04:59:04.294Z,979.18
2023-04-04T05:00:04.265Z,979.17
2023-04-04T05:01:04.223Z,979.20
2023-04-04T05:02:04.197Z,979.17
2023-04-04T05:03:04.158Z,979.23
2023-04-04T05:04:04.130Z,979.17
2023-04-04T05:05:04.117Z,979.21
2023-04-04T05:06:05.095Z,979.19
2023-04-04T05:07:04.120Z,979.14
2023-04-04T05:08:04.050Z,979.13
2023-04-04T05:09:04.020Z,979.06
2023-04-04T05:10:04.014Z,979.14
2023-04-04T05:11:05.445Z,979.12
2023-04-04T05:12:05.017Z,979.07
2023-04-04T05:13:04.001Z,979.11
2023-04-04T05:14:03.947Z,979.11
2023-04-04T05:15:03.926Z,979.06
2023-04-04T05:16:03.943Z,979.03
2023-04-04T05:17:03.908Z,979.01
2023-04-04T05:18:03.897Z,979.02
2023-04-04T05:19:03.845Z,979.05
2023-04-04T05:20:03.866Z,979.08
2023-04-04T05:21:03.819Z,979.07
2023-04-04T05:22:03.835Z,979.05
2023-04-04T05:23:03.784Z,979.07
2023-04-04T05:24:03.762Z,979.05
2023-04-04T05:25:03.757Z,979.12
2023-04-04T05:26:03.731Z,979.09
2023-04-04T05:27:03.740Z,979.12
2023-04-04T05:28:03.700Z,979.14
2023-04-04T05:29:03.722Z,979.20
2023-04-04T05:30:03.693Z,979.19
2023-04-04T05:31:03.652Z,979.22
2023-04-04T05:32:03.757Z,979.17
2023-04-04T05:33:03.673Z,979.29
2023-04-04T05:34:03.606Z,979.27
2023-04-04T05:35:03.645Z,979.24
2023-04-04T05:36:03.708Z,979.18
2023-04-04T05:37:03.581Z,979.23
2023-04-04T05:38:03.535Z,979.26
2023-04-04T05:39:03.497Z,979.27
2023-04-04T05:40:03.480Z,979.20
2023-04-04T05:41:03.514Z,979.25
2023-04-04T05:42:03.485Z,979.22
2023-04-04T05:43:03.425Z,979.29
2023-04-04T05:44:03.417Z,979.27
2023-04-04T05:45:03.406Z,979.21
2023-04-04T05:46:03.405Z,979.18
2023-04-04T05:47:03.395Z,979.10
2023-04-04T05:48:03.385Z,979.16
2023-04-04T05:49:03.324Z,979.16
2023-04-04T05:50:03.309Z,979.18
2023-04-04T05:51:03.296Z,979.20
2023-04-04T05:52:03.333Z,979.21
2023-04-04T05:53:03.298Z,979.23
2023-04-04T05:54:03.238Z,979.29
2023-04-04T05:55:03.216Z,979.22
2023-04-04T05:56:03.214Z,979.29
2023-04-04T05:57:03.220Z,979.34
2023-04-04T05:58:03.214Z,979.37
2023-04-04T05:59:03.251Z,979.36
2023-04-04T06:00:03.247Z,979.33
2023-04-04T06:01:03.123Z,979.35
2023-04-04T06:02:03.159Z,979.37
2023-04-04T06:03:03.164Z,979.42
2023-04-04T06:04:03.079Z,979.39
2023-04-04T06:05:03.093Z,979.42
2023-04-04T06:06:03.146Z,979.44
2023-04-04T06:07:03.059Z,979.42
2023-04-04T06:08:02.991Z,979.41
2023-04-04T06:09:02.988Z,979.50
2023-04-04T06:10:02.974Z,979.43
2023-04-04T06:11:02.948Z,979.47
2023-04-04T06:12:02.969Z,979.47
2023-04-04T06:13:02.910Z,979.48
2023-04-04T06:14:02.900Z,979.42
2023-04-04T06:15:02.891Z,979.52
2023-04-04T06:16:02.872Z,979.49
2023-04-04T06:17:02.868Z,979.50
2023-04-04T06:18:02.863Z,979.50
2023-04-04T06:19:02.822Z,979.40
2023-04-04T06:20:02.785Z,979.47
2023-04-04T06:21:02.769Z,979.48
2023-04-04T06:22:02.789Z,979.50
2023-04-04T06:23:02.735Z,979.49
2023-04-04T06:24:02.724Z,979.45
2023-04-04T06:25:02.945Z,979.50
2023-04-04T06:26:02.683Z,979.49
2023-04-04T06:27:02.704Z,979.53
2023-04-04T06:28:02.651Z,979.56
2023-04-04T06:29:02.633Z,979.44
2023-04-04T06:30:02.646Z,979.48
2023-04-04T06:31:02.605Z,979.47
2023-04-04T06:32:02.602Z,979.45
2023-04-04T06:33:02.599Z,979.40
2023-04-04T06:34:02.568Z,979.42
2023-04-04T06:35:02.519Z,979.47
2023-04-04T06:36:02.520Z,979.47
2023-04-04T06:37:02.538Z,979.49
2023-04-04T06:38:02.469Z,979.46
2023-04-04T06:39:02.452Z,979.46
2023-04-04T06:40:02.462Z,979.49
2023-04-04T06:41:02.460Z,979.48
2023-04-04T06:42:02.451Z,979.43
2023-04-04T06:43:02.409Z,979.45
2023-04-04T06:44:02.369Z,979.43
2023-04-04T06:45:02.385Z,979.47
2023-04-04T06:46:02.366Z,979.51
2023-04-04T06:47:02.371Z,979.53
2023-04-04T06:48:02.396Z,979.53
2023-04-04T06:49:02.320Z,979.52
2023-04-04T06:50:02.290Z,979.56
2023-04-04T06:51:02.249Z,979.57
2023-04-04T06:52:02.279Z,979.55
2023-04-04T06:53:02.264Z,979.54
2023-04-04T06:54:02.233Z,979.59
2023-04-04T06:55:02.185Z,979.56
2023-04-04T06:56:02.189Z,979.53
2023-04-04T06:57:02.209Z,979.47
2023-04-04T06:58:02.144Z,979.54
2023-04-04T06:59:02.144Z,979.50
2023-04-04T07:00:02.135Z,979.54
2023-04-04T07:01:02.125Z,979.51
2023-04-04T07:02:02.129Z,979.52
2023-04-04T07:03:03.115Z,979.54
2023-04-04T07:04:02.037Z,979.53
2023-04-04T07:05:02.029Z,979.53
2023-04-04T07:06:02.005Z,979.51
2023-04-04T07:07:02.010Z,979.57
2023-04-04T07:08:02.013Z,979.56
2023-04-04T07:09:02.003Z,979.49
2023-04-04T07:10:01.927Z,979.55
2023-04-04T07:11:01.941Z,979.56
2023-04-04T07:12:01.968Z,979.47
2023-04-04T07:13:01.945Z,979.46
2023-04-04T07:14:01.868Z,979.55
2023-04-04T07:15:01.850Z,979.59
2023-04-04T07:16:01.892Z,979.60
2023-04-04T07:17:03.673Z,979.62
2023-04-04T07:18:02.929Z,979.60
2023-04-04T07:19:01.776Z,979.59
2023-04-04T07:20:02.936Z,979.61
2023-04-04T07:21:01.755Z,979.58
2023-04-04T07:22:01.801Z,979.60
2023-04-04T07:23:01.810Z,979.66
2023-04-04T07:24:01.721Z,979.58
2023-04-04T07:25:01.689Z,979.59
2023-04-04T07:26:01.656Z,979.64
2023-04-04T07:27:01.844Z,979.62
2023-04-04T07:28:11.592Z,979.70
2023-04-04T07:29:03.623Z,979.67
2023-04-04T07:30:01.608Z,979.73
2023-04-04T07:31:01.568Z,979.70
2023-04-04T07:32:01.601Z,979.65
2023-04-04T07:33:01.605Z,979.62
2023-04-04T07:34:01.575Z,979.61
2023-04-04T07:35:01.501Z,979.64
2023-04-04T07:36:01.520Z,979.66
2023-04-04T07:37:01.578Z,979.66
2023-04-04T07:38:01.518Z,979.61
2023-04-04T07:39:01.447Z,979.58
2023-04-04T07:40:01.461Z,979.55
2023-04-04T07:41:03.667Z,979.62
2023-04-04T07:42:01.380Z,979.64
2023-04-04T07:43:01.416Z,979.53
2023-04-04T07:44:01.342Z,979.44
2023-04-04T07:45:02.364Z,979.35
2023-04-04T07:46:01.375Z,979.46
2023-04-04T07:47:09.420Z,979.49
2023-04-04T07:48:03.365Z,979.42
2023-04-04T07:49:01.314Z,979.43
2023-04-04T07:50:01.287Z,979.48
2023-04-04T07:51:01.234Z,979.45
2023-04-04T07:52:01.234Z,979.42
2023-04-04T07:53:01.251Z,979.51
2023-04-04T07:54:01.186Z,979.55
2023-04-04T07:55:01.200Z,979.56
2023-04-04T07:56:01.155Z,979.55
2023-04-04T07:57:01.169Z,979.51
2023-04-04T07:58:01.160Z,979.59
2023-04-04T07:59:01.141Z,979.56
2023-04-04T08:00:01.082Z,979.53
2023-04-04T08:01:01.070Z,979.57
2023-04-04T08:02:01.059Z,979.57
2023-04-04T08:03:01.150Z,979.61
2023-04-04T08:04:01.316Z,979.58
2023-04-04T08:05:01.019Z,979.62
2023-04-04T08:06:01.010Z,979.66
2023-04-04T08:07:00.987Z,979.65
2023-04-04T08:08:01.003Z,979.68
2023-04-04T08:09:00.960Z,979.65
2023-04-04T08:10:00.959Z,979.63
2023-04-04T08:11:00.933Z,979.63
2023-04-04T08:12:00.890Z,979.58
2023-04-04T08:13:00.900Z,979.61
2023-04-04T08:14:00.839Z,979.62
2023-04-04T08:15:01.879Z,979.60
2023-04-04T08:16:00.879Z,979.62
2023-04-04T08:17:00.814Z,979.63
2023-04-04T08:18:00.921Z,979.60
2023-04-04T08:19:00.817Z,979.55
2023-04-04T08:20:00.763Z,979.55
2023-04-04T08:21:00.762Z,979.51
2023-04-04T08:22:00.775Z,979.54
2023-04-04T08:23:00.763Z,979.55
2023-04-04T08:24:00.698Z,979.58
2023-04-04T08:25:00.787Z,979.53
2023-04-04T08:26:00.671Z,979.50
2023-04-04T08:27:05.092Z,979.54
2023-04-04T08:28:01.711Z,979.50
2023-04-04T08:29:00.629Z,979.51
2023-04-04T08:30:00.731Z,979.55
2023-04-04T08:31:00.587Z,979.54
2023-04-04T08:32:00.595Z,979.54
2023-04-04T08:33:00.623Z,979.54
2023-04-04T08:34:00.577Z,979.49
2023-04-04T08:35:00.550Z,979.49
2023-04-04T08:36:00.545Z,979.47
2023-04-04T08:37:00.591Z,979.49
2023-04-04T08:38:00.526Z,979.44
2023-04-04T08:39:00.476Z,979.51
2023-04-04T08:40:00.451Z,979.51
2023-04-04T08:41:00.433Z,979.41
2023-04-04T08:42:00.413Z,979.39
2023-04-04T08:43:00.457Z,979.38
2023-04-04T08:44:00.421Z,979.40
2023-04-04T08:45:00.374Z,979.36
2023-04-04T08:46:00.384Z,979.39
2023-04-04T08:47:00.472Z,979.29
2023-04-04T08:48:00.368Z,979.29
2023-04-04T08:49:00.325Z,979.32
2023-04-04T08:50:00.285Z,979.31
2023-04-04T08:51:00.266Z,979.35
2023-04-04T08:52:00.268Z,979.32
2023-04-04T08:53:00.288Z,979.31
2023-04-04T08:54:00.242Z,979.37
2023-04-04T08:55:00.257Z,979.36
2023-04-04T08:56:00.185Z,979.34
2023-04-04T08:57:00.164Z,979.29
2023-04-04T08:58:00.204Z,979.33
2023-04-04T08:59:00.214Z,979.29
2023-04-04T09:00:00.291Z,979.27
2023-04-04T09:01:00.171Z,979.29
2023-04-04T09:02:01.205Z,979.29
2023-04-04T09:03:01.203Z,979.33
2023-04-04T09:04:00.060Z,979.32
2023-04-04T09:05:06.391Z,979.30
2023-04-04T09:06:02.035Z,979.32
2023-04-04T09:07:00.011Z,979.31
2023-04-04T09:08:01.021Z,979.32
2023-04-04T09:08:59.983Z,979.30
2023-04-04T09:09:59.961Z,979.33
2023-04-04T09:10:59.948Z,979.37
2023-04-04T09:11:59.919Z,979.30
2023-04-04T09:13:12.442Z,979.32
2023-04-04T09:14:01.905Z,979.34
2023-04-04T09:14:59.893Z,979.33
2023-04-04T09:16:00.099Z,979.38
2023-04-04T09:16:59.992Z,979.37
2023-04-04T09:17:59.899Z,979.35
2023-04-04T09:18:59.820Z,979.33
2023-04-04T09:19:59.794Z,979.31
2023-04-04T09:20:59.775Z,979.37
2023-04-04T09:21:59.768Z,979.32
2023-04-04T09:22:59.795Z,979.28
2023-04-04T09:23:59.735Z,979.28
2023-04-04T09:24:59.728Z,979.30
2023-04-04T09:26:04.447Z,979.29
2023-04-04T09:27:01.687Z,979.32
2023-04-04T09:27:59.755Z,979.27
2023-04-04T09:28:59.665Z,979.31
2023-04-04T09:29:59.649Z,979.29
2023-04-04T09:30:59.628Z,979.24
2023-04-04T09:31:59.639Z,979.32
2023-04-04T09:32:59.859Z,979.25
2023-04-04T09:33:59.578Z,979.23
2023-04-04T09:34:59.555Z,979.20
2023-04-04T09:35:59.613Z,979.20
2023-04-04T09:37:31.405Z,979.25
2023-04-04T09:37:59.614Z,979.22
2023-04-04T09:38:59.499Z,979.24
2023-04-04T09:39:59.484Z,979.24
2023-04-04T09:40:59.465Z,979.23
2023-04-04T09:41:59.465Z,979.24
2023-04-04T09:42:59.480Z,979.23
2023-04-04T09:43:59.461Z,979.22
2023-04-04T09:44:59.439Z,979.26
2023-04-04T09:45:59.437Z,979.22
2023-04-04T09:46:59.377Z,979.17
2023-04-04T09:47:59.682Z,979.22
2023-04-04T09:48:59.391Z,979.21
2023-04-04T09:49:59.330Z,979.25
2023-04-04T09:50:59.305Z,979.21
2023-04-04T09:51:59.284Z,979.21
2023-04-04T09:52:59.271Z,979.25
2023-04-04T09:53:59.279Z,979.18
2023-04-04T09:54:59.232Z,979.18
2023-04-04T09:55:59.246Z,979.20
2023-04-04T09:56:59.252Z,979.25
2023-04-04T09:57:59.196Z,979.22
2023-04-04T09:59:03.713Z,979.18
2023-04-04T10:00:01.213Z,979.25
2023-04-04T10:00:59.182Z,979.21
2023-04-04T10:01:59.180Z,979.18
2023-04-04T10:02:59.119Z,979.21
2023-04-04T10:03:59.147Z,979.16
2023-04-04T10:05:05.867Z,979.25
2023-04-04T10:06:01.076Z,979.22
2023-04-04T10:06:59.048Z,979.26
2023-04-04T10:07:59.074Z,979.21
2023-04-04T10:08:59.091Z,979.20
2023-04-04T10:09:59.009Z,979.22
2023-04-04T10:11:09.487Z,979.21
2023-04-04T10:12:01.085Z,979.18
2023-04-04T10:12:58.951Z,979.21
2023-04-04T10:13:58.959Z,979.21
2023-04-04T10:14:58.917Z,979.22
2023-04-04T10:15:58.932Z,979.19
2023-04-04T10:16:58.881Z,979.15
2023-04-04T10:17:58.892Z,979.14
2023-04-04T10:18:58.883Z,979.18
2023-04-04T10:19:58.853Z,979.13
2023-04-04T10:21:12.093Z,979.13
2023-04-04T10:22:00.813Z,979.09
2023-04-04T10:22:58.812Z,979.08
2023-04-04T10:23:58.838Z,979.04
2023-04-04T10:24:58.781Z,979.06
2023-04-04T10:25:58.749Z,979.02
2023-04-04T10:26:58.745Z,979.11
2023-04-04T10:27:58.730Z,978.98
2023-04-04T10:28:58.750Z,978.99
2023-04-04T10:29:58.736Z,978.92
2023-04-04T10:31:06.418Z,978.95
2023-04-04T10:32:00.706Z,978.92
2023-04-04T10:32:58.744Z,978.86
2023-04-04T10:33:58.658Z,978.88
2023-04-04T10:34:58.639Z,978.83
2023-04-04T10:35:58.720Z,978.91
2023-04-04T10:36:58.591Z,978.90
2023-04-04T10:37:58.565Z,978.87
2023-04-04T10:38:58.585Z,978.87
2023-04-04T10:39:58.534Z,978.87
2023-04-04T10:40:58.532Z,978.84
2023-04-04T10:41:58.514Z,978.82
2023-04-04T10:42:58.504Z,978.81
2023-04-04T10:43:58.511Z,978.76
2023-04-04T10:45:03.620Z,978.81
2023-04-04T10:46:00.471Z,978.80
2023-04-04T10:46:58.554Z,978.69
2023-04-04T10:47:58.452Z,978.69
2023-04-04T10:48:58.431Z,978.72
2023-04-04T10:49:58.420Z,978.73
2023-04-04T10:50:58.374Z,978.70
2023-04-04T10:51:58.361Z,978.72
2023-04-04T10:52:58.350Z,978.73
2023-04-04T10:53:58.405Z,978.68
2023-04-04T10:54:58.308Z,978.68
2023-04-04T10:55:58.382Z,978.69
2023-04-04T10:56:58.271Z,978.63
2023-04-04T10:57:58.262Z,978.58
2023-04-04T10:58:58.373Z,978.55
2023-04-04T10:59:58.231Z,978.49
2023-04-04T11:00:58.227Z,978.44
2023-04-04T11:01:58.318Z,978.43
2023-04-04T11:02:58.352Z,978.48
2023-04-04T11:03:58.202Z,978.45
2023-04-04T11:04:58.161Z,978.40
2023-04-04T11:05:58.160Z,978.38
2023-04-04T11:06:58.124Z,978.38
2023-04-04T11:08:07.333Z,978.42
2023-04-04T11:09:00.133Z,978.40
2023-04-04T11:09:58.074Z,978.38
2023-04-04T11:10:58.063Z,978.41
2023-04-04T11:11:58.070Z,978.41
2023-04-04T11:13:09.619Z,978.39
2023-04-04T11:14:00.040Z,978.44
2023-04-04T11:14:58.072Z,978.43
2023-04-04T11:15:58.023Z,978.46
2023-04-04T11:16:58.152Z,978.47
2023-04-04T11:17:58.066Z,978.39
2023-04-04T11:18:57.967Z,978.48
2023-04-04T11:19:57.921Z,978.42
2023-04-04T11:20:57.901Z,978.36
2023-04-04T11:21:57.886Z,978.42
2023-04-04T11:22:57.853Z,978.41
2023-04-04T11:23:57.865Z,978.36
2023-04-04T11:24:57.827Z,978.38
2023-04-04T11:25:57.807Z,978.40
2023-04-04T11:26:57.796Z,978.39
2023-04-04T11:27:57.843Z,978.42
2023-04-04T11:28:57.799Z,978.32
2023-04-04T11:29:57.750Z,978.41
2023-04-04T11:30:57.719Z,978.38
2023-04-04T11:31:57.748Z,978.52
2023-04-04T11:33:07.282Z,978.44
2023-04-04T11:33:59.720Z,978.53
2023-04-04T11:34:57.666Z,978.46
2023-04-04T11:35:57.654Z,978.52
2023-04-04T11:36:57.634Z,978.49
2023-04-04T11:37:57.601Z,978.45
2023-04-04T11:38:57.622Z,978.48
2023-04-04T11:39:57.571Z,978.47
2023-04-04T11:40:57.558Z,978.42
2023-04-04T11:41:57.579Z,978.40
2023-04-04T11:42:57.556Z,978.43
2023-04-04T11:43:57.569Z,978.40
2023-04-04T11:44:57.491Z,978.40
2023-04-04T11:45:57.505Z,978.39
2023-04-04T11:46:57.458Z,978.34
2023-04-04T11:47:57.606Z,978.36
2023-04-04T11:48:57.453Z,978.48
2023-04-04T11:49:57.438Z,978.45
2023-04-04T11:50:57.391Z,978.39
2023-04-04T11:51:57.405Z,978.36
2023-04-04T11:52:57.355Z,978.39
2023-04-04T11:53:57.370Z,978.38
2023-04-04T11:54:57.317Z,978.39
2023-04-04T11:55:57.296Z,978.48
2023-04-04T11:56:57.301Z,978.43
2023-04-04T11:57:57.271Z,978.35
2023-04-04T11:59:08.785Z,978.30
2023-04-04T11:59:59.245Z,978.32
2023-04-04T12:00:57.231Z,978.27
2023-04-04T12:01:57.202Z,978.34
2023-04-04T12:02:57.277Z,978.30
2023-04-04T12:03:57.205Z,978.36
2023-04-04T12:04:57.376Z,978.33
2023-04-04T12:05:57.165Z,978.36
2023-04-04T12:06:57.136Z,978.34
2023-04-04T12:07:58.114Z,978.35
2023-04-04T12:08:57.120Z,978.35
2023-04-04T12:09:57.503Z,978.35
2023-04-04T12:10:57.063Z,978.28
2023-04-04T12:11:57.044Z,978.34
2023-04-04T12:12:57.028Z,978.31
2023-04-04T12:13:57.039Z,978.30
2023-04-04T12:15:10.251Z,978.23
2023-04-04T12:15:59.069Z,978.22
2023-04-04T12:16:56.985Z,978.26
2023-04-04T12:17:56.976Z,978.24
2023-04-04T12:18:56.944Z,978.25
2023-04-04T12:19:56.911Z,978.21
2023-04-04T12:20:56.953Z,978.16
2023-04-04T12:21:56.874Z,978.17
2023-04-04T12:22:56.870Z,978.18
2023-04-04T12:23:56.880Z,978.19
2023-04-04T12:24:56.892Z,978.13
2023-04-04T12:25:56.803Z,978.08
2023-04-04T12:26:56.785Z,978.14
2023-04-04T12:27:56.783Z,978.17